HES weather

Healdsburg Municipal Airport
Healdsburg, California, United States

Public forecast

Using degrees Fahrenheit for public forecast. Weather courtesy of forecast.io.

METAR (pilot weather report)

Closest report is Charles M. Schulz Sonoma County Airport, 9.6 nm (17.7 km) SSE. Retrieved 2019/08/21 10:53 UTC (9 minutes ago):

KSTS 211053Z AUTO 00000KT 10SM CLR 12/12 A2997 RMK AO2 SLP141 T01220117

TAF (pilot weather forecast)

Closest forecast is Charles M. Schulz Sonoma County Airport, 9.6 nm (17.7 km) SSE. Retrieved 2019/08/21 06:22 UTC (5 hours ago):

TAF KSTS 210520Z 2106/2206 15005KT P6SM SKC TEMPO 2112/2116 4SM BR FM211600 VRB03KT P6SM SCT010 FM211900 16008KT P6SM SKC FM220400 14004KT P6SM SKC